Flight Track Log - Related Links

Times and Time Zones

All times are in EDT time to prevent confusion due to time zone crossing. See the N789AM flight status page for this flight to view local times or setup timezone preferences in your user account.

Time Position Orientation Groundspeed Altitude Reporting Facility
EDT Latitude Longitude Course Direction KTS MPH feet Rate Location/Type
Wed 08:22:15 PM 28.8167 -80.8333 170° South 187 215 3,700  Level Orlando TRACON
Wed 08:23:15 PM 28.7500 -80.8167 168° South 188 216 3,000 -446 Descending Orlando TRACON
Wed 08:24:16 PM 28.7000 -80.8167 180° South 173 199 2,800 -100 Descending Orlando TRACON
Wed 08:25:15 PM 28.6667 -80.8000 156° South 167 192 2,800 50 Level Orlando TRACON
Wed 08:26:15 PM 28.6167 -80.7833 164° South 163 188 2,900 263 Climbing Orlando TRACON
Wed 08:27:00 PM 28.6591 -80.6084 170° South  Level FlightAware Approximate
Wed 08:27:09 PM 28.5833 -80.7667 156° South 159 183 3,300  Level Orlando TRACON
Wed 08:28:09 PM 28.5333 -80.7667 180° South 165 190 3,300 50 Level Orlando TRACON
Wed 08:29:09 PM 28.4833 -80.7500 164° South 170 196 3,400 -100 Climbing Orlando TRACON
Wed 08:30:09 PM 28.4333 -80.7333 164° South 175 201 3,100 -136 Descending Orlando TRACON
Wed 08:31:21 PM 28.3833 -80.7333 180° South 174 200 3,100  Level Orlando TRACON
Wed 08:32:21 PM 28.3333 -80.7000 150° Southeast 166 191 3,100  Level Orlando TRACON
Wed 08:33:15 PM 28.3000 -80.7000 180° South 171 197 3,100  Level Orlando TRACON
Wed 08:34:15 PM 28.2500 -80.6833 164° South 170 196 3,100 -53 Level Orlando TRACON
Wed 08:35:09 PM 28.2167 -80.6667 156° South 170 196 3,000  Descending Orlando TRACON
Wed 08:36:15 PM 28.1667 -80.6333 150° Southeast 165 190 3,100  Climbing Orlando TRACON
Wed 08:37:15 PM 28.1333 -80.6167 156° South 169 194 3,000  Descending Orlando TRACON
Wed 08:38:15 PM 28.0833 -80.6000 164° South 167 192 3,100 44 Climbing Orlando TRACON
Wed 08:39:30 PM 28.0247 -80.5847 167° South 171 197 3,100  Level Miami Center
Wed 08:40:30 PM 27.9814 -80.5669 160° South 171 197 3,100  Level Miami Center
Wed 08:41:30 PM 27.9403 -80.5492 159° South 166 191 3,100 -50 Level Miami Center
Wed 08:42:30 PM 27.8989 -80.5267 154° Southeast 166 191 3,000 -50 Descending Miami Center
Wed 08:43:30 PM 27.8450 -80.5178 172° South 166 191 3,000 -50 Level Miami Center
Wed 08:44:30 PM 27.7992 -80.5094 171° South 166 191 2,900 50 Descending Miami Center
Wed 08:45:30 PM 27.7536 -80.5033 173° South 171 197 3,100 -100 Climbing Miami Center
Wed 08:46:30 PM 27.7097 -80.5019 178° South 176 203 2,700 -300 Descending Miami Center
Wed 08:47:30 PM 27.6533 -80.4978 176° South 182 209 2,500 -100 Descending Miami Center
Wed 08:48:30 PM 27.6056 -80.4961 178° South 176 203 2,500  Level Miami Center

Login

Don't have an account? Register now (free) for customized features, flight alerts, and more!